sensor_id;sensor_type;location;lat;lon;timestamp;P1;durP1;ratioP1;P2;durP2;ratioP2
8407;SDS011;4241;48.452;9.216;2023-03-14T00:00:03;374.23;;;125.00;;
8407;SDS011;4241;48.452;9.216;2023-03-14T00:02:33;373.53;;;125.43;;
8407;SDS011;4241;48.452;9.216;2023-03-14T00:05:00;380.57;;;130.43;;
8407;SDS011;4241;48.452;9.216;2023-03-14T00:07:27;376.53;;;125.93;;
8407;SDS011;4241;48.452;9.216;2023-03-14T00:09:58;385.47;;;126.17;;
8407;SDS011;4241;48.452;9.216;2023-03-14T00:12:27;385.00;;;127.93;;
8407;SDS011;4241;48.452;9.216;2023-03-14T00:14:54;383.50;;;129.57;;
8407;SDS011;4241;48.452;9.216;2023-03-14T00:17:21;380.83;;;126.30;;
8407;SDS011;4241;48.452;9.216;2023-03-14T00:19:48;384.23;;;126.37;;
8407;SDS011;4241;48.452;9.216;2023-03-14T00:22:17;390.83;;;128.20;;
8407;SDS011;4241;48.452;9.216;2023-03-14T00:24:44;390.60;;;129.17;;
8407;SDS011;4241;48.452;9.216;2023-03-14T00:27:11;393.90;;;128.80;;
8407;SDS011;4241;48.452;9.216;2023-03-14T00:29:39;389.27;;;128.27;;
8407;SDS011;4241;48.452;9.216;2023-03-14T00:32:08;387.83;;;128.07;;
8407;SDS011;4241;48.452;9.216;2023-03-14T00:34:35;386.60;;;126.43;;
8407;SDS011;4241;48.452;9.216;2023-03-14T00:37:01;381.90;;;127.40;;
8407;SDS011;4241;48.452;9.216;2023-03-14T00:39:28;382.07;;;126.50;;
8407;SDS011;4241;48.452;9.216;2023-03-14T00:41:55;383.03;;;126.23;;
8407;SDS011;4241;48.452;9.216;2023-03-14T00:44:22;386.00;;;128.60;;
8407;SDS011;4241;48.452;9.216;2023-03-14T00:46:51;386.77;;;127.57;;
8407;SDS011;4241;48.452;9.216;2023-03-14T00:49:18;386.47;;;127.27;;
8407;SDS011;4241;48.452;9.216;2023-03-14T00:51:44;387.00;;;126.90;;
8407;SDS011;4241;48.452;9.216;2023-03-14T00:54:11;381.23;;;125.43;;
8407;SDS011;4241;48.452;9.216;2023-03-14T00:56:38;380.00;;;125.87;;
8407;SDS011;4241;48.452;9.216;2023-03-14T00:59:05;374.23;;;124.93;;
8407;SDS011;4241;48.452;9.216;2023-03-14T01:01:32;381.40;;;126.13;;
8407;SDS011;4241;48.452;9.216;2023-03-14T01:04:00;388.33;;;130.43;;
8407;SDS011;4241;48.452;9.216;2023-03-14T01:06:28;380.87;;;126.90;;
8407;SDS011;4241;48.452;9.216;2023-03-14T01:08:56;379.90;;;124.70;;
8407;SDS011;4241;48.452;9.216;2023-03-14T01:11:24;383.80;;;126.43;;
8407;SDS011;4241;48.452;9.216;2023-03-14T01:13:52;383.70;;;125.53;;
8407;SDS011;4241;48.452;9.216;2023-03-14T01:16:19;381.87;;;124.43;;
8407;SDS011;4241;48.452;9.216;2023-03-14T01:18:47;385.87;;;126.97;;
8407;SDS011;4241;48.452;9.216;2023-03-14T01:21:17;383.30;;;126.27;;
8407;SDS011;4241;48.452;9.216;2023-03-14T01:23:45;392.63;;;128.80;;
8407;SDS011;4241;48.452;9.216;2023-03-14T01:26:13;393.23;;;130.40;;
8407;SDS011;4241;48.452;9.216;2023-03-14T01:28:41;384.57;;;126.67;;
8407;SDS011;4241;48.452;9.216;2023-03-14T01:31:09;388.43;;;126.53;;
8407;SDS011;4241;48.452;9.216;2023-03-14T01:33:37;391.27;;;130.37;;
8407;SDS011;4241;48.452;9.216;2023-03-14T01:36:05;393.93;;;128.63;;
8407;SDS011;4241;48.452;9.216;2023-03-14T01:38:35;400.73;;;131.60;;
8407;SDS011;4241;48.452;9.216;2023-03-14T01:41:03;410.67;;;141.37;;
8407;SDS011;4241;48.452;9.216;2023-03-14T01:43:30;392.90;;;127.13;;
8407;SDS011;4241;48.452;9.216;2023-03-14T01:48:48;398.20;;;131.30;;
8407;SDS011;4241;48.452;9.216;2023-03-14T01:51:21;392.57;;;127.93;;
8407;SDS011;4241;48.452;9.216;2023-03-14T01:53:54;389.83;;;127.87;;
8407;SDS011;4241;48.452;9.216;2023-03-14T01:56:28;389.20;;;128.80;;
8407;SDS011;4241;48.452;9.216;2023-03-14T01:58:55;371.53;;;122.90;;
8407;SDS011;4241;48.452;9.216;2023-03-14T02:01:23;383.87;;;126.97;;
8407;SDS011;4241;48.452;9.216;2023-03-14T02:03:52;372.70;;;124.50;;
8407;SDS011;4241;48.452;9.216;2023-03-14T02:06:21;372.30;;;124.37;;
8407;SDS011;4241;48.452;9.216;2023-03-14T02:08:53;370.90;;;123.60;;
8407;SDS011;4241;48.452;9.216;2023-03-14T02:11:20;383.87;;;126.17;;
8407;SDS011;4241;48.452;9.216;2023-03-14T02:13:50;376.47;;;126.60;;
8407;SDS011;4241;48.452;9.216;2023-03-14T02:16:17;386.83;;;128.77;;
8407;SDS011;4241;48.452;9.216;2023-03-14T02:18:44;387.00;;;128.03;;
8407;SDS011;4241;48.452;9.216;2023-03-14T02:21:12;382.63;;;127.57;;
8407;SDS011;4241;48.452;9.216;2023-03-14T02:23:46;380.97;;;128.40;;
8407;SDS011;4241;48.452;9.216;2023-03-14T02:26:21;380.03;;;125.80;;
8407;SDS011;4241;48.452;9.216;2023-03-14T02:28:53;375.67;;;124.17;;
8407;SDS011;4241;48.452;9.216;2023-03-14T02:31:21;373.33;;;124.33;;
8407;SDS011;4241;48.452;9.216;2023-03-14T02:33:49;371.97;;;124.90;;
8407;SDS011;4241;48.452;9.216;2023-03-14T02:36:16;374.57;;;124.73;;
8407;SDS011;4241;48.452;9.216;2023-03-14T02:38:46;375.50;;;124.97;;
8407;SDS011;4241;48.452;9.216;2023-03-14T02:41:17;420.67;;;163.93;;
8407;SDS011;4241;48.452;9.216;2023-03-14T02:43:44;370.70;;;124.23;;
8407;SDS011;4241;48.452;9.216;2023-03-14T02:46:13;370.13;;;122.70;;
8407;SDS011;4241;48.452;9.216;2023-03-14T02:48:43;374.60;;;127.00;;
8407;SDS011;4241;48.452;9.216;2023-03-14T02:51:13;373.33;;;124.57;;
8407;SDS011;4241;48.452;9.216;2023-03-14T02:53:40;369.90;;;125.03;;
8407;SDS011;4241;48.452;9.216;2023-03-14T02:56:08;371.70;;;124.90;;
8407;SDS011;4241;48.452;9.216;2023-03-14T02:58:35;366.10;;;122.20;;
8407;SDS011;4241;48.452;9.216;2023-03-14T03:01:02;362.27;;;121.87;;
8407;SDS011;4241;48.452;9.216;2023-03-14T03:03:31;363.00;;;122.97;;
8407;SDS011;4241;48.452;9.216;2023-03-14T03:05:58;359.27;;;120.73;;
8407;SDS011;4241;48.452;9.216;2023-03-14T03:08:26;363.10;;;122.70;;
8407;SDS011;4241;48.452;9.216;2023-03-14T03:10:53;363.67;;;121.63;;
8407;SDS011;4241;48.452;9.216;2023-03-14T03:13:20;360.47;;;121.63;;
8407;SDS011;4241;48.452;9.216;2023-03-14T03:15:47;361.30;;;121.50;;
8407;SDS011;4241;48.452;9.216;2023-03-14T03:18:14;362.93;;;123.43;;
8407;SDS011;4241;48.452;9.216;2023-03-14T03:20:42;365.97;;;123.97;;
8407;SDS011;4241;48.452;9.216;2023-03-14T03:23:09;366.67;;;124.10;;
8407;SDS011;4241;48.452;9.216;2023-03-14T03:25:36;379.33;;;130.07;;
8407;SDS011;4241;48.452;9.216;2023-03-14T03:28:03;357.67;;;120.10;;
8407;SDS011;4241;48.452;9.216;2023-03-14T03:30:33;355.20;;;121.13;;
8407;SDS011;4241;48.452;9.216;2023-03-14T03:33:03;351.73;;;119.50;;
8407;SDS011;4241;48.452;9.216;2023-03-14T03:35:30;384.07;;;143.20;;
8407;SDS011;4241;48.452;9.216;2023-03-14T03:37:58;340.90;;;117.63;;
8407;SDS011;4241;48.452;9.216;2023-03-14T03:40:25;341.73;;;117.90;;
8407;SDS011;4241;48.452;9.216;2023-03-14T03:42:52;342.50;;;118.80;;
8407;SDS011;4241;48.452;9.216;2023-03-14T03:45:19;335.40;;;115.13;;
8407;SDS011;4241;48.452;9.216;2023-03-14T03:47:46;337.00;;;117.77;;
8407;SDS011;4241;48.452;9.216;2023-03-14T03:50:13;340.40;;;119.17;;
8407;SDS011;4241;48.452;9.216;2023-03-14T03:52:40;339.43;;;117.77;;
8407;SDS011;4241;48.452;9.216;2023-03-14T03:55:08;335.20;;;116.00;;
8407;SDS011;4241;48.452;9.216;2023-03-14T03:57:35;335.03;;;116.87;;
8407;SDS011;4241;48.452;9.216;2023-03-14T04:00:02;335.07;;;116.87;;
8407;SDS011;4241;48.452;9.216;2023-03-14T04:02:31;329.60;;;114.60;;
8407;SDS011;4241;48.452;9.216;2023-03-14T04:04:58;338.07;;;116.50;;
8407;SDS011;4241;48.452;9.216;2023-03-14T04:07:24;335.27;;;116.57;;
8407;SDS011;4241;48.452;9.216;2023-03-14T04:09:51;340.63;;;119.23;;
8407;SDS011;4241;48.452;9.216;2023-03-14T04:12:19;332.03;;;115.50;;
8407;SDS011;4241;48.452;9.216;2023-03-14T04:14:46;331.13;;;113.67;;
8407;SDS011;4241;48.452;9.216;2023-03-14T04:17:13;337.47;;;116.37;;
8407;SDS011;4241;48.452;9.216;2023-03-14T04:19:40;336.70;;;117.40;;
8407;SDS011;4241;48.452;9.216;2023-03-14T04:22:07;335.53;;;115.63;;
8407;SDS011;4241;48.452;9.216;2023-03-14T04:24:34;337.67;;;117.17;;
8407;SDS011;4241;48.452;9.216;2023-03-14T04:27:01;337.60;;;116.67;;
8407;SDS011;4241;48.452;9.216;2023-03-14T04:29:30;334.40;;;116.23;;
8407;SDS011;4241;48.452;9.216;2023-03-14T04:31:56;336.47;;;116.50;;
8407;SDS011;4241;48.452;9.216;2023-03-14T04:34:23;331.20;;;114.60;;
8407;SDS011;4241;48.452;9.216;2023-03-14T04:36:51;333.63;;;115.53;;
8407;SDS011;4241;48.452;9.216;2023-03-14T04:39:17;330.97;;;114.47;;
8407;SDS011;4241;48.452;9.216;2023-03-14T04:41:44;327.20;;;113.53;;
8407;SDS011;4241;48.452;9.216;2023-03-14T04:44:11;328.77;;;114.80;;
8407;SDS011;4241;48.452;9.216;2023-03-14T04:46:40;326.63;;;114.70;;
8407;SDS011;4241;48.452;9.216;2023-03-14T04:49:06;324.40;;;113.97;;
8407;SDS011;4241;48.452;9.216;2023-03-14T04:51:33;326.83;;;116.17;;
8407;SDS011;4241;48.452;9.216;2023-03-14T04:54:00;330.47;;;116.80;;
8407;SDS011;4241;48.452;9.216;2023-03-14T04:56:27;330.70;;;116.43;;
8407;SDS011;4241;48.452;9.216;2023-03-14T04:58:54;326.17;;;114.00;;
8407;SDS011;4241;48.452;9.216;2023-03-14T05:01:21;327.03;;;115.03;;
8407;SDS011;4241;48.452;9.216;2023-03-14T05:03:50;330.97;;;116.67;;
8407;SDS011;4241;48.452;9.216;2023-03-14T05:06:16;331.63;;;115.90;;
8407;SDS011;4241;48.452;9.216;2023-03-14T05:08:44;331.90;;;115.47;;
8407;SDS011;4241;48.452;9.216;2023-03-14T05:11:11;331.53;;;115.63;;
8407;SDS011;4241;48.452;9.216;2023-03-14T05:13:38;336.00;;;116.60;;
8407;SDS011;4241;48.452;9.216;2023-03-14T05:16:05;333.33;;;114.93;;
8407;SDS011;4241;48.452;9.216;2023-03-14T05:18:34;330.57;;;114.77;;
8407;SDS011;4241;48.452;9.216;2023-03-14T05:21:03;337.93;;;117.10;;
8407;SDS011;4241;48.452;9.216;2023-03-14T05:23:30;343.90;;;119.90;;
8407;SDS011;4241;48.452;9.216;2023-03-14T05:25:57;340.10;;;117.37;;
8407;SDS011;4241;48.452;9.216;2023-03-14T05:28:24;342.70;;;116.60;;
8407;SDS011;4241;48.452;9.216;2023-03-14T05:30:51;340.47;;;115.43;;
8407;SDS011;4241;48.452;9.216;2023-03-14T05:33:18;339.93;;;117.63;;
8407;SDS011;4241;48.452;9.216;2023-03-14T05:35:45;335.23;;;114.70;;
8407;SDS011;4241;48.452;9.216;2023-03-14T05:38:14;338.90;;;116.27;;
8407;SDS011;4241;48.452;9.216;2023-03-14T05:40:41;338.17;;;117.33;;
8407;SDS011;4241;48.452;9.216;2023-03-14T05:43:08;336.83;;;116.23;;
8407;SDS011;4241;48.452;9.216;2023-03-14T05:45:35;349.80;;;122.23;;
8407;SDS011;4241;48.452;9.216;2023-03-14T05:48:02;341.67;;;118.57;;
8407;SDS011;4241;48.452;9.216;2023-03-14T05:50:29;338.57;;;117.57;;
8407;SDS011;4241;48.452;9.216;2023-03-14T05:52:56;333.23;;;116.13;;
8407;SDS011;4241;48.452;9.216;2023-03-14T05:55:24;339.87;;;119.50;;
8407;SDS011;4241;48.452;9.216;2023-03-14T05:57:52;334.60;;;114.93;;
8407;SDS011;4241;48.452;9.216;2023-03-14T06:00:19;327.00;;;113.90;;
8407;SDS011;4241;48.452;9.216;2023-03-14T06:02:47;332.43;;;116.27;;
8407;SDS011;4241;48.452;9.216;2023-03-14T06:05:13;329.53;;;116.43;;
8407;SDS011;4241;48.452;9.216;2023-03-14T06:07:41;339.77;;;120.47;;
8407;SDS011;4241;48.452;9.216;2023-03-14T06:10:08;337.67;;;119.93;;
8407;SDS011;4241;48.452;9.216;2023-03-14T06:12:37;323.37;;;114.83;;
8407;SDS011;4241;48.452;9.216;2023-03-14T06:15:04;327.60;;;114.03;;
8407;SDS011;4241;48.452;9.216;2023-03-14T06:17:31;341.77;;;121.27;;
8407;SDS011;4241;48.452;9.216;2023-03-14T06:19:58;329.90;;;114.97;;
8407;SDS011;4241;48.452;9.216;2023-03-14T06:22:25;339.03;;;117.50;;
8407;SDS011;4241;48.452;9.216;2023-03-14T06:24:52;340.80;;;118.53;;
8407;SDS011;4241;48.452;9.216;2023-03-14T06:27:19;333.90;;;115.00;;
8407;SDS011;4241;48.452;9.216;2023-03-14T06:29:47;339.70;;;116.10;;
8407;SDS011;4241;48.452;9.216;2023-03-14T06:32:14;342.97;;;117.30;;
8407;SDS011;4241;48.452;9.216;2023-03-14T06:34:41;345.90;;;119.53;;
8407;SDS011;4241;48.452;9.216;2023-03-14T06:37:08;350.60;;;118.97;;
8407;SDS011;4241;48.452;9.216;2023-03-14T06:39:34;347.60;;;119.27;;
8407;SDS011;4241;48.452;9.216;2023-03-14T06:42:03;352.53;;;120.90;;
8407;SDS011;4241;48.452;9.216;2023-03-14T06:44:30;355.03;;;121.27;;
8407;SDS011;4241;48.452;9.216;2023-03-14T06:46:58;353.23;;;119.40;;
8407;SDS011;4241;48.452;9.216;2023-03-14T06:49:25;356.93;;;122.37;;
8407;SDS011;4241;48.452;9.216;2023-03-14T06:51:52;352.83;;;120.50;;
8407;SDS011;4241;48.452;9.216;2023-03-14T06:54:19;359.73;;;121.77;;
8407;SDS011;4241;48.452;9.216;2023-03-14T06:56:46;348.07;;;121.63;;
8407;SDS011;4241;48.452;9.216;2023-03-14T06:59:13;352.33;;;121.70;;
8407;SDS011;4241;48.452;9.216;2023-03-14T07:01:40;354.13;;;121.73;;
8407;SDS011;4241;48.452;9.216;2023-03-14T07:04:09;358.63;;;122.67;;
8407;SDS011;4241;48.452;9.216;2023-03-14T07:06:36;356.33;;;122.67;;
8407;SDS011;4241;48.452;9.216;2023-03-14T07:09:04;363.00;;;125.70;;
8407;SDS011;4241;48.452;9.216;2023-03-14T07:11:31;358.17;;;122.10;;
8407;SDS011;4241;48.452;9.216;2023-03-14T07:13:58;356.47;;;120.93;;
8407;SDS011;4241;48.452;9.216;2023-03-14T07:16:25;361.77;;;123.90;;
8407;SDS011;4241;48.452;9.216;2023-03-14T07:18:54;358.30;;;121.97;;
8407;SDS011;4241;48.452;9.216;2023-03-14T07:21:22;363.83;;;125.23;;
8407;SDS011;4241;48.452;9.216;2023-03-14T07:23:49;364.87;;;124.47;;
8407;SDS011;4241;48.452;9.216;2023-03-14T07:26:16;365.73;;;123.37;;
8407;SDS011;4241;48.452;9.216;2023-03-14T07:28:43;364.27;;;122.93;;
8407;SDS011;4241;48.452;9.216;2023-03-14T07:31:09;366.50;;;126.43;;
8407;SDS011;4241;48.452;9.216;2023-03-14T07:33:36;359.60;;;122.33;;
8407;SDS011;4241;48.452;9.216;2023-03-14T07:36:04;356.77;;;122.17;;
8407;SDS011;4241;48.452;9.216;2023-03-14T07:38:32;363.83;;;124.53;;
8407;SDS011;4241;48.452;9.216;2023-03-14T07:40:59;371.50;;;126.50;;
8407;SDS011;4241;48.452;9.216;2023-03-14T07:43:26;373.53;;;126.10;;
8407;SDS011;4241;48.452;9.216;2023-03-14T07:45:53;384.17;;;132.80;;
8407;SDS011;4241;48.452;9.216;2023-03-14T07:48:20;383.20;;;131.07;;
8407;SDS011;4241;48.452;9.216;2023-03-14T07:50:49;374.27;;;128.33;;
8407;SDS011;4241;48.452;9.216;2023-03-14T07:53:17;377.83;;;128.90;;
8407;SDS011;4241;48.452;9.216;2023-03-14T07:55:45;384.67;;;131.33;;
8407;SDS011;4241;48.452;9.216;2023-03-14T07:58:12;387.80;;;133.30;;
8407;SDS011;4241;48.452;9.216;2023-03-14T08:00:39;376.13;;;127.87;;
8407;SDS011;4241;48.452;9.216;2023-03-14T08:03:06;385.03;;;132.40;;
8407;SDS011;4241;48.452;9.216;2023-03-14T08:05:34;392.33;;;136.33;;
8407;SDS011;4241;48.452;9.216;2023-03-14T08:08:01;387.43;;;135.30;;
8407;SDS011;4241;48.452;9.216;2023-03-14T08:10:28;388.87;;;133.70;;
8407;SDS011;4241;48.452;9.216;2023-03-14T08:12:57;396.87;;;139.07;;
8407;SDS011;4241;48.452;9.216;2023-03-14T08:15:25;396.30;;;141.47;;
8407;SDS011;4241;48.452;9.216;2023-03-14T08:17:52;392.23;;;136.90;;
8407;SDS011;4241;48.452;9.216;2023-03-14T08:20:20;382.47;;;134.83;;
8407;SDS011;4241;48.452;9.216;2023-03-14T08:22:47;392.07;;;137.93;;
8407;SDS011;4241;48.452;9.216;2023-03-14T08:25:15;393.07;;;137.67;;
8407;SDS011;4241;48.452;9.216;2023-03-14T08:27:42;389.87;;;137.73;;
8407;SDS011;4241;48.452;9.216;2023-03-14T08:30:12;391.57;;;137.13;;
8407;SDS011;4241;48.452;9.216;2023-03-14T08:32:41;386.87;;;132.70;;
8407;SDS011;4241;48.452;9.216;2023-03-14T08:35:08;388.47;;;137.50;;
8407;SDS011;4241;48.452;9.216;2023-03-14T08:37:36;391.07;;;137.27;;
8407;SDS011;4241;48.452;9.216;2023-03-14T08:40:04;392.13;;;136.93;;
8407;SDS011;4241;48.452;9.216;2023-03-14T08:42:32;385.47;;;133.70;;
8407;SDS011;4241;48.452;9.216;2023-03-14T08:44:59;384.57;;;134.90;;
8407;SDS011;4241;48.452;9.216;2023-03-14T08:47:27;394.53;;;137.47;;
8407;SDS011;4241;48.452;9.216;2023-03-14T08:49:55;393.50;;;138.03;;
8407;SDS011;4241;48.452;9.216;2023-03-14T08:52:22;398.77;;;138.80;;
8407;SDS011;4241;48.452;9.216;2023-03-14T08:54:49;410.23;;;143.60;;
8407;SDS011;4241;48.452;9.216;2023-03-14T08:57:16;408.13;;;144.37;;
8407;SDS011;4241;48.452;9.216;2023-03-14T08:59:43;437.47;;;165.97;;
8407;SDS011;4241;48.452;9.216;2023-03-14T09:02:11;421.93;;;148.03;;
8407;SDS011;4241;48.452;9.216;2023-03-14T09:04:39;422.30;;;148.90;;
8407;SDS011;4241;48.452;9.216;2023-03-14T09:07:06;426.00;;;149.37;;
8407;SDS011;4241;48.452;9.216;2023-03-14T09:09:33;426.43;;;150.30;;
8407;SDS011;4241;48.452;9.216;2023-03-14T09:12:00;422.77;;;148.37;;
8407;SDS011;4241;48.452;9.216;2023-03-14T09:14:27;422.03;;;149.37;;
8407;SDS011;4241;48.452;9.216;2023-03-14T09:16:54;422.10;;;147.20;;
8407;SDS011;4241;48.452;9.216;2023-03-14T09:19:20;421.80;;;147.27;;
8407;SDS011;4241;48.452;9.216;2023-03-14T09:21:49;422.13;;;150.00;;
8407;SDS011;4241;48.452;9.216;2023-03-14T09:24:16;413.30;;;144.57;;
8407;SDS011;4241;48.452;9.216;2023-03-14T09:26:43;416.87;;;149.83;;
8407;SDS011;4241;48.452;9.216;2023-03-14T09:29:10;405.90;;;143.67;;
8407;SDS011;4241;48.452;9.216;2023-03-14T09:31:37;404.93;;;144.37;;
8407;SDS011;4241;48.452;9.216;2023-03-14T09:34:04;400.77;;;142.97;;
8407;SDS011;4241;48.452;9.216;2023-03-14T09:36:30;396.53;;;139.93;;
8407;SDS011;4241;48.452;9.216;2023-03-14T09:38:58;398.33;;;141.90;;
8407;SDS011;4241;48.452;9.216;2023-03-14T09:41:26;397.37;;;139.57;;
8407;SDS011;4241;48.452;9.216;2023-03-14T09:43:58;395.23;;;139.93;;
8407;SDS011;4241;48.452;9.216;2023-03-14T09:46:30;390.67;;;136.93;;
8407;SDS011;4241;48.452;9.216;2023-03-14T09:49:00;393.43;;;138.10;;
8407;SDS011;4241;48.452;9.216;2023-03-14T09:51:27;394.10;;;138.43;;
8407;SDS011;4241;48.452;9.216;2023-03-14T09:53:54;388.60;;;136.17;;
8407;SDS011;4241;48.452;9.216;2023-03-14T09:56:23;390.23;;;137.17;;
8407;SDS011;4241;48.452;9.216;2023-03-14T09:58:54;387.20;;;134.43;;
8407;SDS011;4241;48.452;9.216;2023-03-14T10:01:25;388.73;;;136.77;;
8407;SDS011;4241;48.452;9.216;2023-03-14T10:03:54;387.23;;;136.27;;
8407;SDS011;4241;48.452;9.216;2023-03-14T10:06:22;386.67;;;134.70;;
8407;SDS011;4241;48.452;9.216;2023-03-14T10:08:52;387.80;;;135.23;;
8407;SDS011;4241;48.452;9.216;2023-03-14T10:11:20;389.27;;;134.00;;
8407;SDS011;4241;48.452;9.216;2023-03-14T10:14:02;390.20;;;136.63;;
8407;SDS011;4241;48.452;9.216;2023-03-14T10:16:34;396.83;;;138.83;;
8407;SDS011;4241;48.452;9.216;2023-03-14T10:19:02;394.47;;;136.77;;
8407;SDS011;4241;48.452;9.216;2023-03-14T10:21:30;404.30;;;145.23;;
8407;SDS011;4241;48.452;9.216;2023-03-14T10:24:18;406.43;;;143.07;;
8407;SDS011;4241;48.452;9.216;2023-03-14T10:26:48;402.20;;;141.73;;
8407;SDS011;4241;48.452;9.216;2023-03-14T10:29:17;401.07;;;141.23;;
8407;SDS011;4241;48.452;9.216;2023-03-14T10:31:47;401.17;;;143.07;;
8407;SDS011;4241;48.452;9.216;2023-03-14T10:34:22;409.70;;;147.77;;
8407;SDS011;4241;48.452;9.216;2023-03-14T10:36:54;402.37;;;142.67;;
8407;SDS011;4241;48.452;9.216;2023-03-14T10:39:30;399.90;;;141.83;;
8407;SDS011;4241;48.452;9.216;2023-03-14T10:42:12;399.93;;;140.93;;
8407;SDS011;4241;48.452;9.216;2023-03-14T10:44:45;397.33;;;140.27;;
8407;SDS011;4241;48.452;9.216;2023-03-14T10:47:16;399.77;;;139.90;;
8407;SDS011;4241;48.452;9.216;2023-03-14T10:49:45;398.87;;;140.97;;
8407;SDS011;4241;48.452;9.216;2023-03-14T10:52:14;396.47;;;136.90;;
8407;SDS011;4241;48.452;9.216;2023-03-14T10:54:48;392.80;;;136.27;;
8407;SDS011;4241;48.452;9.216;2023-03-14T10:57:15;398.40;;;138.60;;
8407;SDS011;4241;48.452;9.216;2023-03-14T10:59:41;395.77;;;134.77;;
8407;SDS011;4241;48.452;9.216;2023-03-14T11:02:15;398.77;;;137.00;;
8407;SDS011;4241;48.452;9.216;2023-03-14T11:05:03;398.43;;;138.13;;
8407;SDS011;4241;48.452;9.216;2023-03-14T11:07:42;400.43;;;143.43;;
8407;SDS011;4241;48.452;9.216;2023-03-14T11:10:11;394.77;;;137.90;;
8407;SDS011;4241;48.452;9.216;2023-03-14T11:12:47;387.10;;;133.20;;
8407;SDS011;4241;48.452;9.216;2023-03-14T11:15:23;382.63;;;133.83;;
8407;SDS011;4241;48.452;9.216;2023-03-14T11:18:13;374.17;;;131.93;;
8407;SDS011;4241;48.452;9.216;2023-03-14T11:20:51;375.33;;;129.57;;
8407;SDS011;4241;48.452;9.216;2023-03-14T11:23:22;361.47;;;124.53;;
8407;SDS011;4241;48.452;9.216;2023-03-14T11:25:54;361.07;;;124.87;;
8407;SDS011;4241;48.452;9.216;2023-03-14T11:28:28;364.23;;;126.80;;
8407;SDS011;4241;48.452;9.216;2023-03-14T11:31:04;358.03;;;123.57;;
8407;SDS011;4241;48.452;9.216;2023-03-14T11:33:43;360.07;;;124.47;;
8407;SDS011;4241;48.452;9.216;2023-03-14T11:36:14;361.00;;;123.10;;
8407;SDS011;4241;48.452;9.216;2023-03-14T11:38:46;365.60;;;125.70;;
8407;SDS011;4241;48.452;9.216;2023-03-14T11:41:15;368.90;;;124.80;;
8407;SDS011;4241;48.452;9.216;2023-03-14T11:43:46;375.17;;;129.10;;
8407;SDS011;4241;48.452;9.216;2023-03-14T11:46:16;368.83;;;124.70;;
8407;SDS011;4241;48.452;9.216;2023-03-14T11:48:51;373.97;;;128.03;;
8407;SDS011;4241;48.452;9.216;2023-03-14T11:51:25;370.63;;;125.87;;
8407;SDS011;4241;48.452;9.216;2023-03-14T11:54:01;373.90;;;128.40;;
8407;SDS011;4241;48.452;9.216;2023-03-14T11:56:34;369.57;;;124.67;;
8407;SDS011;4241;48.452;9.216;2023-03-14T11:59:10;374.83;;;125.70;;
8407;SDS011;4241;48.452;9.216;2023-03-14T12:01:53;400.17;;;146.90;;
8407;SDS011;4241;48.452;9.216;2023-03-14T12:04:31;378.93;;;128.57;;
8407;SDS011;4241;48.452;9.216;2023-03-14T12:07:07;382.23;;;131.93;;
8407;SDS011;4241;48.452;9.216;2023-03-14T12:09:40;385.93;;;129.47;;
8407;SDS011;4241;48.452;9.216;2023-03-14T12:12:10;385.07;;;130.80;;
8407;SDS011;4241;48.452;9.216;2023-03-14T12:14:43;386.77;;;129.93;;
8407;SDS011;4241;48.452;9.216;2023-03-14T12:17:19;387.13;;;129.67;;
8407;SDS011;4241;48.452;9.216;2023-03-14T12:19:47;370.93;;;124.90;;
8407;SDS011;4241;48.452;9.216;2023-03-14T12:22:26;372.97;;;125.80;;
8407;SDS011;4241;48.452;9.216;2023-03-14T12:24:57;377.57;;;126.33;;
8407;SDS011;4241;48.452;9.216;2023-03-14T12:27:44;365.83;;;124.20;;
8407;SDS011;4241;48.452;9.216;2023-03-14T12:30:29;364.53;;;122.33;;
8407;SDS011;4241;48.452;9.216;2023-03-14T12:33:18;351.10;;;119.20;;
8407;SDS011;4241;48.452;9.216;2023-03-14T12:35:56;346.60;;;117.77;;
8407;SDS011;4241;48.452;9.216;2023-03-14T12:38:27;338.87;;;114.30;;
8407;SDS011;4241;48.452;9.216;2023-03-14T12:41:05;338.60;;;115.87;;
8407;SDS011;4241;48.452;9.216;2023-03-14T12:43:39;330.77;;;113.43;;
8407;SDS011;4241;48.452;9.216;2023-03-14T12:46:07;334.73;;;113.27;;
8407;SDS011;4241;48.452;9.216;2023-03-14T12:48:55;336.37;;;116.17;;
8407;SDS011;4241;48.452;9.216;2023-03-14T12:51:33;329.00;;;112.93;;
8407;SDS011;4241;48.452;9.216;2023-03-14T12:57:04;324.30;;;111.60;;
8407;SDS011;4241;48.452;9.216;2023-03-14T12:59:36;320.60;;;111.53;;
8407;SDS011;4241;48.452;9.216;2023-03-14T13:02:14;319.93;;;111.20;;
8407;SDS011;4241;48.452;9.216;2023-03-14T13:04:50;324.77;;;112.57;;
8407;SDS011;4241;48.452;9.216;2023-03-14T13:07:29;320.03;;;110.73;;
8407;SDS011;4241;48.452;9.216;2023-03-14T13:12:48;328.03;;;112.70;;
8407;SDS011;4241;48.452;9.216;2023-03-14T13:15:21;328.13;;;114.17;;
8407;SDS011;4241;48.452;9.216;2023-03-14T13:17:52;324.10;;;110.77;;
8407;SDS011;4241;48.452;9.216;2023-03-14T13:20:24;328.30;;;112.73;;
8407;SDS011;4241;48.452;9.216;2023-03-14T13:22:55;324.57;;;110.90;;
8407;SDS011;4241;48.452;9.216;2023-03-14T13:25:22;327.37;;;112.00;;
8407;SDS011;4241;48.452;9.216;2023-03-14T13:27:51;325.70;;;110.30;;
8407;SDS011;4241;48.452;9.216;2023-03-14T13:30:20;322.10;;;109.50;;
8407;SDS011;4241;48.452;9.216;2023-03-14T13:32:49;315.33;;;107.30;;
8407;SDS011;4241;48.452;9.216;2023-03-14T13:35:18;318.63;;;108.73;;
8407;SDS011;4241;48.452;9.216;2023-03-14T13:37:48;323.17;;;111.20;;
8407;SDS011;4241;48.452;9.216;2023-03-14T13:40:20;311.70;;;107.43;;
8407;SDS011;4241;48.452;9.216;2023-03-14T13:42:59;317.63;;;107.40;;
8407;SDS011;4241;48.452;9.216;2023-03-14T13:45:31;328.40;;;112.13;;
8407;SDS011;4241;48.452;9.216;2023-03-14T13:48:08;309.50;;;106.73;;
8407;SDS011;4241;48.452;9.216;2023-03-14T13:50:35;308.10;;;105.07;;
8407;SDS011;4241;48.452;9.216;2023-03-14T13:53:04;310.50;;;106.73;;
8407;SDS011;4241;48.452;9.216;2023-03-14T13:55:30;320.53;;;112.17;;
8407;SDS011;4241;48.452;9.216;2023-03-14T13:57:57;305.83;;;104.50;;
8407;SDS011;4241;48.452;9.216;2023-03-14T14:00:25;305.33;;;104.17;;
8407;SDS011;4241;48.452;9.216;2023-03-14T14:02:54;307.47;;;104.80;;
8407;SDS011;4241;48.452;9.216;2023-03-14T14:05:23;318.87;;;110.03;;
8407;SDS011;4241;48.452;9.216;2023-03-14T14:07:53;300.50;;;102.83;;
8407;SDS011;4241;48.452;9.216;2023-03-14T14:10:21;299.80;;;103.50;;
8407;SDS011;4241;48.452;9.216;2023-03-14T14:12:49;294.23;;;102.93;;
8407;SDS011;4241;48.452;9.216;2023-03-14T14:15:23;306.77;;;107.67;;
8407;SDS011;4241;48.452;9.216;2023-03-14T14:17:52;305.77;;;103.57;;
8407;SDS011;4241;48.452;9.216;2023-03-14T14:20:24;304.87;;;104.10;;
8407;SDS011;4241;48.452;9.216;2023-03-14T14:22:56;297.83;;;104.00;;
8407;SDS011;4241;48.452;9.216;2023-03-14T14:25:26;326.30;;;111.17;;
8407;SDS011;4241;48.452;9.216;2023-03-14T14:27:54;295.13;;;104.83;;
8407;SDS011;4241;48.452;9.216;2023-03-14T14:30:26;315.50;;;107.83;;
8407;SDS011;4241;48.452;9.216;2023-03-14T14:33:10;310.83;;;107.27;;
8407;SDS011;4241;48.452;9.216;2023-03-14T14:35:44;296.73;;;104.00;;
8407;SDS011;4241;48.452;9.216;2023-03-14T14:38:19;311.27;;;112.13;;
8407;SDS011;4241;48.452;9.216;2023-03-14T14:40:49;296.83;;;105.77;;